Time;durP1;ratioP1;P1;durP2;ratioP2;P2;SDS_P1;SDS_P2;PMS_P1;PMS_P2;Temp;Humidity;BMP_temperature;BMP_pressure;BME280_temperature;BME280_humidity;BME280_pressure;Samples;Min_cycle;Max_cycle;Signal;HPM_P1;HPM_P2
2022/05/30 03:57:37;;;;;;;2.40;1.55;;;;;;;12.18;75.81;99845.66;5911432;27;20106;-84
2022/05/30 04:00:43;;;;;;;1.52;1.30;;;;;;;12.20;74.66;99837.34;5360557;33;34825;-84
2022/05/30 04:03:46;;;;;;;1.62;1.52;;;;;;;12.28;75.59;99837.16;5360529;33;34404;-84
2022/05/30 04:06:49;;;;;;;1.67;1.58;;;;;;;12.32;73.96;99835.75;5346533;33;32959;-84
2022/05/30 04:09:53;;;;;;;2.03;1.40;;;;;;;12.39;74.58;99839.28;5359699;33;34265;-84
2022/05/30 04:13:02;;;;;;;1.58;1.45;;;;;;;12.39;74.44;99830.34;5360262;33;34341;-85
2022/05/30 04:16:13;;;;;;;1.70;1.60;;;;;;;12.46;74.40;99825.78;5347400;33;33708;-85
2022/05/30 04:19:16;;;;;;;1.90;1.80;;;;;;;12.44;75.65;99831.41;5359991;33;34489;-84
2022/05/30 04:22:20;;;;;;;1.60;1.50;;;;;;;12.56;74.96;99839.75;5359527;33;33454;-84
2022/05/30 04:25:26;;;;;;;2.90;1.70;;;;;;;12.63;72.95;99842.44;5360045;33;34727;-84
2022/05/30 04:28:29;;;;;;;1.50;1.40;;;;;;;12.63;74.49;99854.09;5359653;33;33959;-85
2022/05/30 04:31:36;;;;;;;1.67;1.58;;;;;;;12.76;73.55;99853.31;5360022;33;32717;-84
2022/05/30 04:34:39;;;;;;;1.65;1.55;;;;;;;12.81;74.09;99856.22;5360147;33;33509;-85
2022/05/30 04:37:42;;;;;;;3.28;2.17;;;;;;;12.89;73.59;99850.59;5359473;33;34529;-84
2022/05/30 04:40:49;;;;;;;1.92;1.83;;;;;;;13.00;72.06;99851.03;5358843;33;34894;-85
2022/05/30 04:43:59;;;;;;;1.98;1.67;;;;;;;13.13;71.60;99862.69;5359682;33;34437;-85
2022/05/30 04:47:05;;;;;;;1.95;1.80;;;;;;;13.12;71.80;99861.03;5360764;33;32030;-84
2022/05/30 04:50:16;;;;;;;2.75;1.90;;;;;;;13.13;72.84;99870.81;5362867;33;34075;-85
2022/05/30 04:53:19;;;;;;;1.80;1.70;;;;;;;13.20;71.32;99870.81;5361695;33;34115;-89
2022/05/30 04:56:23;;;;;;;4.00;1.70;;;;;;;13.19;71.76;99873.69;5362216;33;34247;-89
2022/05/30 04:59:26;;;;;;;1.58;1.48;;;;;;;13.19;71.52;99887.22;5373653;33;33514;-84
2022/05/30 05:02:31;;;;;;;3.17;1.87;;;;;;;13.29;73.39;99888.50;5379716;33;33717;-85
2022/05/30 05:05:34;;;;;;;1.85;1.60;;;;;;;13.35;73.55;99879.56;5379737;33;35288;-85
2022/05/30 05:08:43;;;;;;;1.80;1.70;;;;;;;13.44;71.26;99877.50;5379391;33;34253;-85
2022/05/30 05:11:48;;;;;;;2.25;1.67;;;;;;;13.54;74.03;99883.31;5379927;33;33830;-85
2022/05/30 05:14:55;;;;;;;2.67;2.08;;;;;;;13.71;71.32;99878.28;5379629;33;34446;-85
2022/05/30 05:18:01;;;;;;;1.70;1.60;;;;;;;13.88;70.57;99894.91;5375779;33;33933;-85
2022/05/30 05:21:04;;;;;;;2.20;1.85;;;;;;;14.28;68.77;99886.69;5361978;33;33630;-85
2022/05/30 05:24:08;;;;;;;3.42;1.80;;;;;;;14.34;68.15;99891.25;5362906;33;33949;-85
2022/05/30 05:27:15;;;;;;;3.97;1.85;;;;;;;14.49;67.90;99897.22;5362464;33;35234;-85
2022/05/30 05:30:20;;;;;;;2.58;1.77;;;;;;;14.72;67.61;99898.59;5380103;33;34936;-85
2022/05/30 05:33:23;;;;;;;2.30;2.10;;;;;;;14.90;66.33;99901.41;5376625;33;34007;-85
2022/05/30 05:36:29;;;;;;;1.85;1.75;;;;;;;15.04;66.27;99902.16;5383812;33;34203;-85
2022/05/30 05:39:31;;;;;;;2.92;1.75;;;;;;;15.16;63.87;99908.53;5383059;33;33465;-85
2022/05/30 05:42:34;;;;;;;2.25;1.62;;;;;;;15.22;64.63;99912.25;5380537;33;34072;-85
2022/05/30 05:45:40;;;;;;;3.90;1.73;;;;;;;15.18;63.81;99911.88;5365243;33;34368;-85
2022/05/30 05:48:44;;;;;;;2.15;1.85;;;;;;;15.14;62.94;99912.50;5361512;33;33843;-85
2022/05/30 05:51:53;;;;;;;4.28;1.92;;;;;;;15.45;63.30;99921.69;5361179;33;33880;-85
2022/05/30 05:54:56;;;;;;;1.67;1.52;;;;;;;15.57;62.30;99918.03;5368902;33;33722;-85
2022/05/30 05:58:00;;;;;;;1.48;1.37;;;;;;;15.74;60.50;99926.47;5369535;33;34299;-85
2022/05/30 06:01:08;;;;;;;1.65;1.55;;;;;;;15.99;59.84;99921.00;5378063;33;33672;-85
2022/05/30 06:04:11;;;;;;;3.35;1.58;;;;;;;16.26;59.50;99928.84;5375794;33;34684;-85
2022/05/30 06:07:17;;;;;;;3.62;1.48;;;;;;;16.53;58.46;99922.06;5378539;33;33619;-83
2022/05/30 06:10:21;;;;;;;1.35;1.20;;;;;;;16.66;55.98;99912.91;5365798;33;32535;-83
2022/05/30 06:13:24;;;;;;;3.12;1.50;;;;;;;16.52;56.18;99914.97;5378059;33;33909;-83
2022/05/30 06:16:30;;;;;;;1.80;1.50;;;;;;;16.50;56.57;99917.09;5376898;33;33852;-83
2022/05/30 06:19:33;;;;;;;1.33;1.23;;;;;;;16.54;57.43;99931.87;5367568;33;33557;-86
2022/05/30 06:22:36;;;;;;;1.55;1.40;;;;;;;16.42;54.12;99930.16;5369778;33;32779;-84
2022/05/30 06:25:44;;;;;;;1.40;1.30;;;;;;;16.52;57.33;99919.56;5375944;33;33961;-83
2022/05/30 06:28:54;;;;;;;1.50;1.40;;;;;;;16.47;56.41;99927.59;5370457;33;33921;-86
2022/05/30 06:31:57;;;;;;;1.62;1.52;;;;;;;16.24;56.39;99925.56;5394412;33;34097;-87
2022/05/30 06:35:00;;;;;;;2.75;1.27;;;;;;;16.06;57.65;99924.50;5389075;33;35595;-87
2022/05/30 06:38:03;;;;;;;1.48;1.37;;;;;;;16.03;58.77;99929.56;5368275;33;33832;-84
2022/05/30 06:41:32;;;;;;;1.77;1.40;;;;;;;16.08;57.44;99938.66;5397040;33;34426;-85
2022/05/30 06:44:36;;;;;;;1.65;1.40;;;;;;;16.12;57.98;99936.34;5395051;33;35267;-84
2022/05/30 06:47:40;;;;;;;1.48;1.30;;;;;;;16.08;57.96;99945.97;5379811;33;32992;-84
2022/05/30 06:50:46;;;;;;;1.67;1.48;;;;;;;16.12;57.97;99941.78;5375599;33;36468;-83
2022/05/30 06:53:49;;;;;;;1.90;1.37;;;;;;;16.23;58.01;99938.31;5379251;33;33825;-84
2022/05/30 07:00:16;;;;;;;1.30;1.20;;;;;;;16.29;56.88;99942.84;5368143;33;33591;-84
2022/05/30 07:03:21;;;;;;;1.75;1.10;;;;;;;16.43;58.00;99943.50;5374792;33;33573;-83
2022/05/30 07:06:31;;;;;;;1.50;1.35;;;;;;;16.87;54.07;99952.41;5359208;33;32066;-84
2022/05/30 07:09:35;;;;;;;1.33;1.23;;;;;;;16.90;55.71;99945.66;5361100;33;32913;-83
2022/05/30 07:12:38;;;;;;;1.42;1.17;;;;;;;16.71;54.51;99942.13;5370694;33;33616;-83
2022/05/30 07:15:42;;;;;;;2.03;1.33;;;;;;;16.80;53.86;99948.13;5371174;33;33827;-83
2022/05/30 07:18:46;;;;;;;2.85;1.60;;;;;;;17.08;52.40;99944.78;5377283;33;34039;-84
2022/05/30 07:21:50;;;;;;;2.67;1.30;;;;;;;17.48;51.68;99941.47;5375268;33;34036;-83
2022/05/30 07:25:00;;;;;;;1.50;1.35;;;;;;;17.62;51.59;99946.47;5374865;33;34218;-84
2022/05/30 07:28:06;;;;;;;1.87;1.40;;;;;;;17.87;51.29;99940.00;5375406;33;33550;-83
2022/05/30 07:31:19;;;;;;;1.40;1.30;;;;;;;17.88;51.07;99941.69;5376774;33;32594;-83
2022/05/30 07:34:34;;;;;;;1.52;1.30;;;;;;;17.74;50.53;99932.87;5372111;33;33921;-84
2022/05/30 07:37:42;;;;;;;1.37;1.27;;;;;;;17.87;49.71;99935.41;5373452;33;32913;-88
2022/05/30 07:40:45;;;;;;;1.67;1.20;;;;;;;17.98;50.04;99930.19;5371885;33;34125;-88
2022/05/30 07:43:50;;;;;;;3.12;1.02;;;;;;;18.17;50.05;99944.53;5371417;33;34041;-84
2022/05/30 07:46:54;;;;;;;1.12;1.02;;;;;;;18.20;50.45;99952.22;5372647;33;34653;-84
2022/05/30 07:50:02;;;;;;;1.42;1.12;;;;;;;18.29;47.78;99935.25;5359995;33;32909;-84
2022/05/30 07:53:06;;;;;;;0.98;0.98;;;;;;;18.44;41.92;99944.81;5374923;33;35342;-84
2022/05/30 07:56:13;;;;;;;0.82;0.82;;;;;;;18.38;43.00;99945.78;5371924;33;33614;-83
2022/05/30 07:59:18;;;;;;;;;;;;;;;18.33;44.15;99950.03;5371816;33;33938;-84
2022/05/30 08:02:21;;;;;;;1.87;0.98;;;;;;;18.11;46.16;99943.56;5376575;28;35411;-83
2022/05/30 08:05:24;;;;;;;3.35;1.20;;;;;;;18.20;47.45;99947.59;5372615;33;34239;-84
2022/05/30 08:08:31;;;;;;;0.93;0.80;;;;;;;18.44;47.97;99947.56;5373922;33;35411;-84
2022/05/30 08:11:34;;;;;;;1.20;1.10;;;;;;;18.46;47.68;99946.25;5372863;33;34010;-84
2022/05/30 08:14:38;;;;;;;1.83;1.20;;;;;;;18.43;47.41;99952.19;5363756;33;31618;-83
2022/05/30 08:17:41;;;;;;;1.40;1.00;;;;;;;18.68;47.19;99954.59;5378367;33;33883;-87
2022/05/30 08:20:45;;;;;;;2.17;1.00;;;;;;;18.79;46.20;99955.66;5379887;33;35198;-86
2022/05/30 08:23:49;;;;;;;1.70;1.10;;;;;;;19.05;47.33;99958.91;5381051;33;33935;-86
2022/05/30 08:26:52;;;;;;;0.85;0.60;;;;;;;19.13;44.97;99961.22;5380182;33;33919;-83
2022/05/30 08:29:57;;;;;;;1.12;0.85;;;;;;;19.09;45.45;99957.31;5366511;33;34161;-83
2022/05/30 08:32:59;;;;;;;0.80;0.80;;;;;;;19.82;43.93;99958.34;5380432;33;34479;-84
2022/05/30 08:36:08;;;;;;;1.70;1.10;;;;;;;20.03;43.11;99965.78;5379858;33;32859;-83
2022/05/30 08:42:33;;;;;;;2.05;0.90;;;;;;;20.16;42.64;99976.38;5379595;33;33355;-84
2022/05/30 08:45:38;;;;;;;1.12;0.80;;;;;;;20.05;43.02;99968.28;5367401;33;34804;-83
2022/05/30 08:48:53;;;;;;;1.08;0.80;;;;;;;19.86;43.01;99968.53;5379045;33;33873;-84
2022/05/30 08:51:59;;;;;;;0.88;0.85;;;;;;;19.73;42.80;99955.22;5378109;33;34722;-84
2022/05/30 08:55:22;;;;;;;0.80;0.80;;;;;;;19.93;42.80;99943.78;5377369;33;33888;-84
2022/05/30 08:58:43;;;;;;;1.30;1.10;;;;;;;20.03;42.10;99952.12;5383312;33;34528;-84
2022/05/30 09:01:50;;;;;;;1.42;1.30;;;;;;;19.83;43.55;99974.50;5365673;33;34075;-87
2022/05/30 09:05:07;;;;;;;0.77;0.77;;;;;;;19.72;43.47;99972.69;5393603;33;33923;-85
2022/05/30 09:08:55;;;;;;;0.70;0.70;;;;;;;19.85;43.61;99985.16;5382622;33;33719;-84
2022/05/30 09:12:08;;;;;;;1.67;0.95;;;;;;;20.13;42.62;99984.25;5355806;33;32184;-84
2022/05/30 09:15:23;;;;;;;0.60;0.60;;;;;;;20.20;41.75;100000.47;5379560;33;34589;-84
2022/05/30 09:18:35;;;;;;;0.77;0.68;;;;;;;20.56;42.87;99983.53;5376298;33;34248;-84
2022/05/30 09:21:39;;;;;;;0.80;0.80;;;;;;;21.04;42.05;99986.56;5379316;33;33769;-84
2022/05/30 09:28:11;;;;;;;1.10;1.00;;;;;;;21.33;40.84;99983.59;5350267;33;33976;-84
2022/05/30 09:31:39;;;;;;;0.70;0.70;;;;;;;20.51;41.28;99983.44;5378966;33;33016;-84
2022/05/30 09:34:49;;;;;;;1.42;1.20;;;;;;;20.28;44.27;99986.37;5364408;33;33056;-85
2022/05/30 09:38:17;;;;;;;1.40;1.17;;;;;;;20.15;43.57;99990.28;5365183;33;32204;-84
2022/05/30 09:41:25;;;;;;;2.47;0.98;;;;;;;20.37;43.29;99991.16;5378186;33;33979;-84
2022/05/30 09:44:45;;;;;;;4.03;1.23;;;;;;;20.79;43.36;99989.81;5378010;33;33954;-84
2022/05/30 09:48:03;;;;;;;1.00;1.00;;;;;;;20.64;41.49;99990.44;5363454;33;35916;-84
2022/05/30 09:51:06;;;;;;;1.33;1.02;;;;;;;20.67;42.95;99987.22;5378648;33;34134;-84
2022/05/30 09:54:12;;;;;;;1.08;0.90;;;;;;;21.02;42.54;99997.75;5378432;33;34305;-84
2022/05/30 09:57:28;;;;;;;1.73;1.25;;;;;;;20.57;43.28;100001.59;5378086;33;33930;-85
2022/05/30 10:00:49;;;;;;;1.77;0.93;;;;;;;20.64;42.82;100003.31;5378719;33;35294;-84
2022/05/30 10:03:59;;;;;;;1.12;1.05;;;;;;;20.43;42.74;100008.47;5369800;33;33843;-84
2022/05/30 10:07:15;;;;;;;1.58;1.10;;;;;;;20.44;43.39;100010.09;5364837;33;35383;-84
2022/05/30 10:10:26;;;;;;;1.12;1.00;;;;;;;20.50;42.68;100003.63;5364347;33;33773;-88
2022/05/30 10:13:35;;;;;;;0.93;0.93;;;;;;;20.65;44.45;100010.41;5379248;33;34647;-88
2022/05/30 10:16:40;;;;;;;1.50;1.10;;;;;;;20.73;43.09;100012.72;5378930;33;34882;-84
2022/05/30 10:19:48;;;;;;;1.33;0.73;;;;;;;20.88;41.49;100010.16;5379058;33;34012;-84
2022/05/30 10:30:58;;;;;;;0.65;0.65;;;;;;;22.08;38.50;99995.47;5359555;33;33781;-84
2022/05/30 10:34:51;;;;;;;0.82;0.82;;;;;;;22.05;39.43;99998.75;5365283;33;32702;-84
2022/05/30 10:38:43;;;;;;;1.00;0.90;;;;;;;22.28;38.46;100000.31;5378640;33;35219;-84
2022/05/30 10:41:54;;;;;;;2.40;0.93;;;;;;;22.21;38.24;99999.72;5334379;33;33931;-84
2022/05/30 10:45:05;;;;;;;0.68;0.68;;;;;;;22.01;38.30;100012.16;5377213;33;33969;-84
2022/05/30 10:48:18;;;;;;;1.05;0.95;;;;;;;21.66;39.87;100012.69;5363552;33;32497;-84
2022/05/30 10:51:29;;;;;;;2.80;0.90;;;;;;;21.35;40.42;100020.56;5382278;33;33994;-84
2022/05/30 10:54:43;;;;;;;2.42;1.05;;;;;;;20.95;41.41;100029.16;5372408;33;33560;-84
2022/05/30 10:57:54;;;;;;;1.17;1.08;;;;;;;19.93;42.30;100025.75;5376390;33;34344;-83
2022/05/30 11:01:15;;;;;;;1.30;1.20;;;;;;;19.84;43.72;100019.87;5377849;33;33972;-83
2022/05/30 11:04:38;;;;;;;1.12;1.05;;;;;;;19.97;43.11;100024.16;5377331;33;33579;-88
2022/05/30 11:08:16;;;;;;;1.20;1.12;;;;;;;20.55;42.78;100020.16;5371206;33;34053;-84
2022/05/30 11:11:22;;;;;;;1.30;1.08;;;;;;;20.82;40.33;100016.66;5373980;33;34099;-84
2022/05/30 11:14:53;;;;;;;1.02;1.02;;;;;;;21.22;41.07;100019.06;5378031;33;34909;-84
2022/05/30 11:18:09;;;;;;;1.33;1.08;;;;;;;21.23;40.59;100042.62;5356136;33;33175;-84
2022/05/30 11:21:16;;;;;;;1.42;1.33;;;;;;;21.10;40.56;100050.41;5375944;33;35538;-84
2022/05/30 11:24:20;;;;;;;1.00;0.90;;;;;;;20.89;40.95;100052.91;5350066;33;32645;-84
2022/05/30 11:27:39;;;;;;;3.03;1.08;;;;;;;20.83;41.71;100059.38;5369105;33;34817;-84
2022/05/30 11:31:14;;;;;;;0.75;0.75;;;;;;;20.82;41.71;100047.59;5375629;33;34079;-84
2022/05/30 11:34:37;;;;;;;0.70;0.70;;;;;;;20.53;42.26;100057.03;5371429;33;34128;-84
2022/05/30 11:38:06;;;;;;;0.77;0.77;;;;;;;20.24;43.11;100051.66;5382817;33;34283;-86
2022/05/30 11:41:34;;;;;;;1.23;1.15;;;;;;;20.13;43.65;100058.88;5359971;33;32294;-83
2022/05/30 11:44:45;;;;;;;1.27;1.17;;;;;;;19.76;44.15;100038.56;5358815;33;33126;-85
2022/05/30 11:48:00;;;;;;;1.70;1.15;;;;;;;19.91;44.56;100047.84;5375016;33;34046;-84
2022/05/30 11:51:19;;;;;;;2.10;1.30;;;;;;;19.84;43.44;100049.09;5377310;33;34015;-84
2022/05/30 11:54:31;;;;;;;2.20;1.40;;;;;;;19.97;43.01;100047.94;5363958;33;32784;-84
2022/05/30 11:57:47;;;;;;;3.67;1.20;;;;;;;19.66;42.86;100048.25;5377716;33;34130;-84
2022/05/30 12:00:53;;;;;;;1.83;1.23;;;;;;;19.59;43.75;100033.84;5364880;33;32332;-83
2022/05/30 12:04:28;;;;;;;1.58;1.10;;;;;;;19.81;43.36;100042.22;5376695;33;34190;-88
2022/05/30 12:07:40;;;;;;;2.65;1.30;;;;;;;20.57;42.30;100030.84;5352485;33;35392;-84
2022/05/30 12:11:01;;;;;;;1.05;0.93;;;;;;;21.27;39.64;100043.78;5371534;33;34068;-84
2022/05/30 12:14:28;;;;;;;1.02;1.02;;;;;;;21.03;40.73;100037.75;5376539;33;35413;-84
2022/05/30 12:24:53;;;;;;;1.25;1.15;;;;;;;20.07;42.57;100048.13;5373700;33;34598;-88
2022/05/30 12:27:56;;;;;;;2.55;1.40;;;;;;;19.88;43.13;100047.50;5373013;33;34432;-88
2022/05/30 12:31:05;;;;;;;2.55;1.00;;;;;;;19.68;43.58;100046.06;5375869;33;33969;-88
2022/05/30 12:34:08;;;;;;;1.00;0.98;;;;;;;19.41;43.26;100042.28;5374519;33;34841;-84
2022/05/30 12:37:12;;;;;;;1.65;1.27;;;;;;;19.28;43.41;100042.59;5373774;33;34311;-84
2022/05/30 12:40:24;;;;;;;1.12;1.00;;;;;;;19.20;43.59;100039.16;5389136;33;33783;-84
2022/05/30 12:43:29;;;;;;;2.03;1.10;;;;;;;19.53;43.54;100032.12;5391371;33;33831;-84
2022/05/30 12:46:51;;;;;;;1.42;1.15;;;;;;;19.70;42.30;100035.72;5378222;33;34205;-84
2022/05/30 12:50:38;;;;;;;1.98;1.12;;;;;;;19.85;42.76;100035.16;5357820;33;32616;-84
2022/05/30 12:53:59;;;;;;;1.77;1.50;;;;;;;19.89;42.11;100038.22;5374515;33;34865;-88
2022/05/30 12:57:08;;;;;;;1.37;1.27;;;;;;;19.94;42.37;100033.69;5375390;33;34015;-84
2022/05/30 13:00:24;;;;;;;2.83;1.27;;;;;;;20.14;41.39;100029.63;5364663;33;32553;-84
2022/05/30 13:03:44;;;;;;;1.52;1.00;;;;;;;20.23;41.24;100033.59;5372589;33;33680;-87
2022/05/30 13:06:56;;;;;;;2.37;1.25;;;;;;;20.10;40.99;100031.22;5366587;33;153484;-84
2022/05/30 13:10:06;;;;;;;1.20;1.10;;;;;;;19.89;42.11;100030.87;5371548;33;34170;-85
2022/05/30 13:13:15;;;;;;;1.77;0.93;;;;;;;19.81;41.89;100023.09;5372661;33;34702;-85
2022/05/30 13:16:31;;;;;;;0.93;0.93;;;;;;;19.61;42.48;100022.72;5378311;33;34237;-84
2022/05/30 13:19:42;;;;;;;1.98;1.25;;;;;;;19.47;43.04;100025.72;5377121;33;33893;-84
2022/05/30 13:22:51;;;;;;;0.90;0.90;;;;;;;19.37;42.51;100027.47;5377848;33;33345;-85
2022/05/30 13:25:55;;;;;;;1.10;1.10;;;;;;;19.41;42.61;100034.91;5368975;33;34388;-84
2022/05/30 13:29:00;;;;;;;2.33;1.25;;;;;;;19.52;43.74;100035.94;5375766;33;34975;-84
2022/05/30 13:32:05;;;;;;;1.70;1.40;;;;;;;19.37;43.54;100025.56;5376712;33;34569;-85
2022/05/30 13:35:11;;;;;;;5.28;1.40;;;;;;;19.19;43.30;100037.50;5379159;33;33828;-87
2022/05/30 13:38:14;;;;;;;2.95;1.40;;;;;;;19.21;42.25;100037.25;5367916;33;32752;-85
2022/05/30 13:41:20;;;;;;;1.80;1.67;;;;;;;19.01;44.97;100049.44;5379476;33;34164;-84
2022/05/30 13:44:27;;;;;;;1.50;1.40;;;;;;;19.16;42.60;100034.41;5366249;33;32942;-86
2022/05/30 13:47:31;;;;;;;1.55;1.35;;;;;;;19.18;43.18;100044.00;5375199;33;33543;-85
2022/05/30 13:50:58;;;;;;;1.35;1.20;;;;;;;19.23;44.89;100048.75;5356740;33;32291;-85
2022/05/30 13:54:10;;;;;;;2.83;1.35;;;;;;;19.56;44.10;100049.91;5361481;33;33172;-85
2022/05/30 13:57:14;;;;;;;1.00;1.00;;;;;;;19.64;42.36;100052.25;5378969;33;33908;-87
2022/05/30 14:00:30;;;;;;;1.27;1.20;;;;;;;19.40;44.87;100055.09;5384998;33;33974;-85
2022/05/30 14:03:34;;;;;;;1.55;1.10;;;;;;;19.33;42.96;100053.56;5390916;33;35367;-89
2022/05/30 14:06:43;;;;;;;1.50;1.30;;;;;;;19.40;44.21;100046.09;5377049;33;34188;-91
2022/05/30 14:09:49;;;;;;;1.50;1.40;;;;;;;19.59;43.87;100043.97;5373053;33;34474;-85
2022/05/30 14:12:52;;;;;;;1.40;1.30;;;;;;;19.84;42.17;100049.09;5373017;33;33925;-85
2022/05/30 14:15:58;;;;;;;1.30;1.20;;;;;;;19.65;42.39;100049.28;5373113;33;34169;-86
2022/05/30 14:19:25;;;;;;;1.75;1.30;;;;;;;19.75;42.00;100061.50;5364115;33;34436;-86
2022/05/30 14:22:28;;;;;;;2.80;1.23;;;;;;;19.99;43.79;100060.28;5365124;33;32654;-86
2022/05/30 14:25:49;;;;;;;1.95;1.20;;;;;;;20.31;40.88;100055.03;5378967;33;34620;-86
2022/05/30 14:29:05;;;;;;;1.33;1.20;;;;;;;20.80;40.76;100057.16;5371429;33;34090;-86
2022/05/30 14:32:18;;;;;;;3.67;1.23;;;;;;;20.99;40.89;100053.00;5364599;33;33090;-86
2022/05/30 14:35:27;;;;;;;2.40;1.05;;;;;;;21.16;39.31;100050.22;5373832;33;34324;-85
2022/05/30 14:38:43;;;;;;;1.95;0.93;;;;;;;21.10;38.80;100055.88;5364141;33;32809;-85
2022/05/30 14:41:59;;;;;;;1.40;1.30;;;;;;;20.63;41.34;100046.25;5357287;33;32909;-84
2022/05/30 14:45:15;;;;;;;2.85;1.17;;;;;;;20.91;47.96;100052.62;5389354;33;33932;-84
2022/05/30 14:48:24;;;;;;;1.62;1.52;;;;;;;20.22;50.15;100050.25;5393654;33;34285;-84
2022/05/30 14:51:37;;;;;;;1.30;1.20;;;;;;;19.81;51.79;100057.78;5396019;33;35361;-88
2022/05/30 14:54:51;;;;;;;1.87;1.77;;;;;;;19.44;52.85;100069.91;5382683;33;34218;-85
2022/05/30 14:58:05;;;;;;;2.00;1.77;;;;;;;19.62;52.04;100068.03;5381819;33;35495;-84
2022/05/30 15:01:10;;;;;;;4.10;2.10;;;;;;;19.92;51.20;100063.19;5374085;33;32616;-84
2022/05/30 15:04:13;;;;;;;4.70;1.85;;;;;;;19.82;51.91;100067.63;5390159;33;34212;-84
2022/05/30 15:07:25;;;;;;;1.90;1.80;;;;;;;19.82;53.04;100056.69;5358611;33;32862;-84
2022/05/30 15:10:28;;;;;;;1.92;1.83;;;;;;;19.81;51.67;100050.41;5379245;33;35108;-84
2022/05/30 15:13:31;;;;;;;1.95;1.80;;;;;;;19.68;51.56;100057.00;5378554;33;34763;-84
2022/05/30 15:16:35;;;;;;;1.62;1.52;;;;;;;19.60;52.44;100065.56;5367418;33;34370;-84
2022/05/30 15:19:38;;;;;;;3.80;1.80;;;;;;;19.83;52.48;100061.94;5370446;33;33995;-84
2022/05/30 15:22:41;;;;;;;2.80;1.73;;;;;;;19.79;51.64;100065.38;5367035;33;34183;-84
2022/05/30 15:25:44;;;;;;;2.25;2.03;;;;;;;19.78;52.21;100063.75;5378452;33;34941;-84
2022/05/30 15:28:47;;;;;;;2.30;1.65;;;;;;;19.33;52.46;100064.50;5365185;33;32760;-84
2022/05/30 15:31:51;;;;;;;2.17;1.65;;;;;;;18.97;53.28;100063.78;5377449;33;33794;-84
2022/05/30 15:34:54;;;;;;;1.65;1.50;;;;;;;18.90;53.50;100060.38;5378569;33;34121;-84
2022/05/30 15:38:00;;;;;;;3.30;2.08;;;;;;;18.76;55.74;100067.97;5378138;33;35466;-84
2022/05/30 15:41:04;;;;;;;2.22;1.83;;;;;;;18.33;55.14;100061.78;5378330;33;33800;-84
2022/05/30 15:44:14;;;;;;;1.73;1.62;;;;;;;18.17;56.51;100067.94;5365235;33;32232;-84
2022/05/30 15:47:17;;;;;;;2.10;1.90;;;;;;;17.90;56.76;100068.38;5365425;33;33944;-85
2022/05/30 15:50:20;;;;;;;1.98;1.80;;;;;;;17.87;57.86;100066.12;5378191;33;33799;-85
